createdAt,value
2023-04-11T00:00:25.453Z,89.00
2023-04-11T00:02:55.650Z,88.50
2023-04-11T00:05:26.428Z,88.70
2023-04-11T00:07:54.671Z,88.80
2023-04-11T00:10:23.038Z,89.20
2023-04-11T00:12:52.683Z,89.30
2023-04-11T00:15:19.402Z,89.40
2023-04-11T00:17:46.135Z,89.50
2023-04-11T00:20:12.898Z,89.70
2023-04-11T00:22:39.715Z,89.50
2023-04-11T00:25:07.053Z,89.70
2023-04-11T00:27:33.789Z,89.70
2023-04-11T00:30:00.946Z,89.70
2023-04-11T00:32:27.947Z,89.90
2023-04-11T00:34:54.672Z,90.00
2023-04-11T00:37:21.397Z,90.00
2023-04-11T00:39:49.406Z,89.90
2023-04-11T00:42:17.012Z,90.00
2023-04-11T00:44:43.971Z,90.00
2023-04-11T00:47:12.108Z,90.10
2023-04-11T00:49:40.184Z,90.10
2023-04-11T00:52:08.440Z,90.20
2023-04-11T00:54:35.435Z,90.20
2023-04-11T00:57:05.012Z,90.30
2023-04-11T00:59:33.149Z,90.30
2023-04-11T01:02:01.608Z,90.40
2023-04-11T01:04:30.642Z,90.40
2023-04-11T01:07:03.445Z,90.50
2023-04-11T01:09:32.806Z,90.60
2023-04-11T01:12:01.648Z,90.60
2023-04-11T01:14:29.080Z,90.80
2023-04-11T01:16:58.026Z,91.00
2023-04-11T01:19:28.002Z,91.00
2023-04-11T01:22:07.641Z,91.00
2023-04-11T01:24:35.822Z,91.10
2023-04-11T01:27:04.026Z,91.10
2023-04-11T01:29:35.840Z,91.30
2023-04-11T01:32:05.542Z,91.40
2023-04-11T01:34:36.090Z,91.30
2023-04-11T01:37:03.027Z,91.40
2023-04-11T01:39:30.264Z,91.50
2023-04-11T01:41:57.854Z,91.70
2023-04-11T01:44:25.244Z,91.70
2023-04-11T01:46:52.098Z,91.80
2023-04-11T01:49:19.084Z,91.80
2023-04-11T01:51:45.783Z,91.90
2023-04-11T01:54:12.529Z,91.90
2023-04-11T01:56:39.261Z,92.00
2023-04-11T01:59:05.961Z,92.10
2023-04-11T02:01:32.682Z,92.10
2023-04-11T02:03:59.529Z,92.20
2023-04-11T02:06:26.293Z,92.10
2023-04-11T02:08:53.571Z,92.20
2023-04-11T02:11:20.354Z,92.30
2023-04-11T02:13:47.055Z,92.40
2023-04-11T02:16:14.028Z,92.50
2023-04-11T02:18:42.685Z,92.50
2023-04-11T02:21:10.821Z,92.60
2023-04-11T02:23:37.756Z,92.70
2023-04-11T02:26:05.899Z,92.80
2023-04-11T02:28:32.596Z,92.90
2023-04-11T02:31:03.039Z,93.00
2023-04-11T02:33:33.366Z,93.10
2023-04-11T02:36:03.581Z,93.20
2023-04-11T02:38:31.920Z,93.30
2023-04-11T02:41:02.392Z,93.40
2023-04-11T02:43:29.365Z,93.40
2023-04-11T02:46:02.295Z,93.50
2023-04-11T02:48:36.461Z,93.60
2023-04-11T02:51:04.680Z,93.70
2023-04-11T02:53:32.083Z,93.80
2023-04-11T02:56:00.307Z,94.00
2023-04-11T02:58:28.041Z,94.20
2023-04-11T03:00:57.909Z,94.30
2023-04-11T03:03:25.173Z,94.40
2023-04-11T03:05:53.195Z,94.50
2023-04-11T03:08:23.078Z,94.60
2023-04-11T03:10:49.838Z,94.70
2023-04-11T03:13:25.476Z,94.90
2023-04-11T03:15:55.102Z,95.00
2023-04-11T03:18:23.601Z,95.20
2023-04-11T03:20:51.965Z,95.20
2023-04-11T03:23:22.008Z,95.30
2023-04-11T03:25:49.175Z,95.30
2023-04-11T03:28:17.028Z,95.50
2023-04-11T03:30:44.143Z,95.50
2023-04-11T03:33:10.836Z,95.60
2023-04-11T03:35:37.697Z,95.70
2023-04-11T03:38:04.426Z,95.70
2023-04-11T03:40:31.108Z,95.80
2023-04-11T03:42:58.071Z,95.80
2023-04-11T03:45:24.814Z,95.90
2023-04-11T03:47:51.765Z,96.00
2023-04-11T03:50:19.062Z,96.10
2023-04-11T03:52:45.855Z,96.30
2023-04-11T03:55:12.666Z,96.30
2023-04-11T03:57:39.352Z,96.50
2023-04-11T04:00:06.635Z,96.50
2023-04-11T04:02:33.736Z,97.30
2023-04-11T04:05:00.660Z,98.40
2023-04-11T04:07:28.113Z,99.20
2023-04-11T04:09:54.842Z,99.90
2023-04-11T04:12:21.957Z,99.90
2023-04-11T04:14:48.992Z,99.90
2023-04-11T04:17:16.136Z,99.90
2023-04-11T04:19:44.553Z,99.90
2023-04-11T04:22:12.711Z,99.90
2023-04-11T04:24:41.084Z,99.90
2023-04-11T04:27:15.047Z,99.90
2023-04-11T04:29:43.011Z,99.90
2023-04-11T04:32:10.289Z,99.90
2023-04-11T04:34:43.093Z,99.90
2023-04-11T04:37:11.391Z,99.90
2023-04-11T04:39:38.143Z,99.90
2023-04-11T04:42:06.335Z,99.90
2023-04-11T04:44:34.399Z,99.90
2023-04-11T04:47:01.109Z,99.90
2023-04-11T04:49:27.852Z,99.90
2023-04-11T04:51:54.545Z,99.90
2023-04-11T04:54:21.215Z,99.90
2023-04-11T04:56:48.012Z,99.90
2023-04-11T04:59:14.703Z,99.90
2023-04-11T05:01:41.670Z,99.90
2023-04-11T05:04:08.512Z,99.90
2023-04-11T05:06:35.477Z,99.90
2023-04-11T05:09:02.432Z,99.90
2023-04-11T05:11:29.151Z,99.90
2023-04-11T05:13:56.085Z,99.90
2023-04-11T05:16:23.008Z,99.90
2023-04-11T05:18:49.798Z,99.90
2023-04-11T05:21:16.810Z,99.90
2023-04-11T05:23:44.114Z,99.90
2023-04-11T05:26:12.289Z,99.90
2023-04-11T05:28:39.107Z,99.90
2023-04-11T05:31:07.466Z,99.90
2023-04-11T05:33:35.912Z,99.90
2023-04-11T05:36:03.192Z,99.90
2023-04-11T05:38:31.110Z,99.90
2023-04-11T05:40:57.804Z,99.90
2023-04-11T05:43:25.757Z,99.90
2023-04-11T05:45:52.519Z,99.90
2023-04-11T05:48:19.283Z,99.90
2023-04-11T05:50:46.373Z,99.90
2023-04-11T05:53:13.183Z,99.90
2023-04-11T05:55:39.949Z,99.90
2023-04-11T05:58:06.712Z,99.90
2023-04-11T06:00:33.430Z,99.90
2023-04-11T06:03:01.153Z,99.90
2023-04-11T06:05:28.026Z,99.90
2023-04-11T06:07:57.219Z,99.90
2023-04-11T06:10:24.007Z,99.90
2023-04-11T06:12:51.088Z,99.90
2023-04-11T06:15:17.890Z,99.90
2023-04-11T06:17:44.651Z,99.90
2023-04-11T06:20:12.907Z,99.90
2023-04-11T06:22:40.939Z,99.90
2023-04-11T06:25:10.219Z,99.90
2023-04-11T06:27:38.111Z,99.90
2023-04-11T06:30:05.775Z,99.90
2023-04-11T06:32:33.642Z,99.90
2023-04-11T06:35:00.392Z,99.90
2023-04-11T06:37:27.135Z,99.90
2023-04-11T06:39:55.182Z,99.90
2023-04-11T06:42:21.939Z,99.90
2023-04-11T06:44:51.192Z,99.90
2023-04-11T06:47:18.091Z,99.90
2023-04-11T06:49:48.382Z,99.90
2023-04-11T06:52:17.439Z,99.90
2023-04-11T06:54:47.485Z,99.90
2023-04-11T06:57:14.294Z,99.90
2023-04-11T06:59:42.386Z,99.90
2023-04-11T07:02:11.637Z,99.90
2023-04-11T07:04:38.706Z,99.90
2023-04-11T07:07:05.594Z,99.90
2023-04-11T07:09:32.490Z,99.90
2023-04-11T07:11:59.668Z,99.90
2023-04-11T07:14:26.382Z,99.90
2023-04-11T07:16:53.063Z,99.90
2023-04-11T07:19:19.845Z,99.90
2023-04-11T07:21:46.848Z,99.90
2023-04-11T07:24:13.599Z,99.90
2023-04-11T07:26:41.433Z,99.90
2023-04-11T07:29:10.987Z,99.90
2023-04-11T07:31:40.414Z,99.90
2023-04-11T07:34:07.367Z,99.90
2023-04-11T07:36:34.013Z,99.90
2023-04-11T07:39:00.733Z,99.90
2023-04-11T07:41:27.424Z,99.90
2023-04-11T07:43:54.323Z,99.90
2023-04-11T07:46:21.468Z,99.90
2023-04-11T07:48:48.137Z,99.90
2023-04-11T07:51:14.854Z,99.90
2023-04-11T07:53:42.810Z,99.90
2023-04-11T07:56:10.193Z,99.90
2023-04-11T07:58:38.407Z,99.90
2023-04-11T08:01:06.528Z,99.90
2023-04-11T08:03:34.879Z,99.90
2023-04-11T08:06:01.767Z,99.90
2023-04-11T08:08:29.491Z,99.90
2023-04-11T08:10:56.156Z,99.90
2023-04-11T08:13:24.363Z,99.90
2023-04-11T08:15:52.082Z,99.90
2023-04-11T08:18:19.097Z,99.90
2023-04-11T08:20:45.860Z,99.90
2023-04-11T08:23:12.524Z,99.90
2023-04-11T08:25:40.323Z,99.90
2023-04-11T08:28:07.030Z,99.90
2023-04-11T08:30:35.431Z,99.90
2023-04-11T08:33:02.200Z,99.90
2023-04-11T08:35:29.165Z,99.90
2023-04-11T08:37:55.855Z,99.90
2023-04-11T08:40:23.218Z,99.90
2023-04-11T08:42:51.364Z,99.90
2023-04-11T08:45:18.032Z,99.90
2023-04-11T08:47:45.561Z,99.90
2023-04-11T08:50:12.796Z,99.90
2023-04-11T08:52:44.654Z,99.90
2023-04-11T08:55:13.465Z,99.90
2023-04-11T08:57:40.148Z,99.90
2023-04-11T09:00:07.937Z,99.90
2023-04-11T09:02:49.639Z,99.90
2023-04-11T09:05:31.775Z,99.90
2023-04-11T09:08:00.333Z,99.90
2023-04-11T09:10:27.220Z,99.90
2023-04-11T09:12:57.545Z,99.90
2023-04-11T09:15:26.678Z,99.90
2023-04-11T09:17:55.043Z,99.90
2023-04-11T09:20:24.741Z,99.90
2023-04-11T09:22:52.693Z,99.90
2023-04-11T09:25:20.814Z,99.90
2023-04-11T09:27:48.633Z,99.90
2023-04-11T09:30:23.332Z,99.90
2023-04-11T09:32:51.603Z,99.90
2023-04-11T09:35:21.027Z,99.90
2023-04-11T09:37:50.437Z,99.90
2023-04-11T09:40:19.196Z,99.90
2023-04-11T09:42:47.088Z,99.90
2023-04-11T09:45:21.594Z,99.90
2023-04-11T09:47:51.854Z,99.90
2023-04-11T09:50:19.233Z,99.90
2023-04-11T09:52:47.242Z,99.90
2023-04-11T09:55:19.714Z,99.90
2023-04-11T09:57:51.529Z,99.90
2023-04-11T10:00:23.269Z,99.90
2023-04-11T10:02:52.020Z,99.90
2023-04-11T10:05:22.822Z,99.90
2023-04-11T10:08:01.244Z,99.90
2023-04-11T10:10:28.354Z,99.90
2023-04-11T10:12:55.062Z,99.90
2023-04-11T10:15:21.860Z,99.90
2023-04-11T10:18:11.466Z,99.90
2023-04-11T10:20:47.474Z,99.90
2023-04-11T10:23:15.159Z,99.90
2023-04-11T10:25:59.808Z,99.90
2023-04-11T10:28:32.972Z,99.90
2023-04-11T10:31:10.273Z,99.90
2023-04-11T10:33:37.473Z,99.90
2023-04-11T10:36:19.609Z,99.90
2023-04-11T10:38:50.995Z,99.90
2023-04-11T10:41:28.725Z,99.90
2023-04-11T10:44:30.152Z,99.90
2023-04-11T10:46:57.177Z,99.90
2023-04-11T10:49:40.350Z,99.90
2023-04-11T10:52:23.588Z,99.90
2023-04-11T10:54:54.329Z,99.90
2023-04-11T10:57:21.883Z,99.90
2023-04-11T10:59:51.566Z,99.90
2023-04-11T11:02:18.833Z,99.90
2023-04-11T11:04:47.140Z,99.90
2023-04-11T11:07:15.085Z,99.90
2023-04-11T11:09:47.327Z,99.90
2023-04-11T11:12:15.600Z,99.90
2023-04-11T11:14:44.679Z,99.90
2023-04-11T11:17:12.809Z,99.90
2023-04-11T11:19:47.250Z,99.90
2023-04-11T11:22:21.508Z,99.90
2023-04-11T11:24:48.274Z,99.90
2023-04-11T11:27:23.168Z,99.90
2023-04-11T11:29:51.121Z,99.90
2023-04-11T11:32:25.901Z,99.90
2023-04-11T11:34:53.866Z,99.90
2023-04-11T11:37:20.626Z,99.90
2023-04-11T11:39:48.800Z,99.90
2023-04-11T11:42:15.820Z,99.90
2023-04-11T11:44:42.598Z,99.90
2023-04-11T11:47:10.765Z,99.90
2023-04-11T11:49:48.529Z,99.90
2023-04-11T11:52:36.213Z,99.90
2023-04-11T11:55:28.448Z,99.90
2023-04-11T11:57:59.971Z,99.90
2023-04-11T12:00:29.479Z,99.90
2023-04-11T12:02:57.924Z,99.90
2023-04-11T12:05:25.492Z,99.90
2023-04-11T12:07:56.398Z,99.90
2023-04-11T12:10:23.326Z,99.90
2023-04-11T12:12:53.505Z,99.90
2023-04-11T12:15:37.165Z,99.90
2023-04-11T12:18:05.881Z,99.90
2023-04-11T12:20:32.782Z,99.90
2023-04-11T12:22:59.629Z,99.90
2023-04-11T12:25:28.510Z,99.90
2023-04-11T12:27:56.456Z,99.90
2023-04-11T12:30:23.268Z,99.90
2023-04-11T12:32:51.664Z,99.90
2023-04-11T12:35:18.714Z,99.90
2023-04-11T12:37:46.559Z,99.90
2023-04-11T12:40:15.424Z,99.90
2023-04-11T12:42:56.706Z,99.90
2023-04-11T12:45:26.942Z,99.90
2023-04-11T12:47:54.607Z,99.90
2023-04-11T12:50:24.926Z,99.90
2023-04-11T12:52:52.555Z,99.90
2023-04-11T12:55:19.561Z,99.90
2023-04-11T12:57:46.367Z,99.90
2023-04-11T13:00:13.842Z,99.90
2023-04-11T13:02:44.443Z,99.90
2023-04-11T13:05:13.018Z,99.90
2023-04-11T13:07:39.750Z,99.90
2023-04-11T13:10:10.314Z,99.90
2023-04-11T13:12:37.350Z,99.90
2023-04-11T13:15:04.388Z,99.90
2023-04-11T13:17:31.259Z,99.90
2023-04-11T13:19:58.144Z,99.90
2023-04-11T13:22:24.987Z,99.90
2023-04-11T13:24:51.722Z,99.90
2023-04-11T13:27:18.466Z,99.90
2023-04-11T13:29:45.269Z,99.90
2023-04-11T13:32:11.950Z,99.90
2023-04-11T13:34:38.597Z,99.90
2023-04-11T13:37:06.769Z,99.90
2023-04-11T13:39:33.492Z,99.90
2023-04-11T13:42:01.703Z,99.90
2023-04-11T13:44:28.477Z,99.90
2023-04-11T13:46:56.612Z,99.90
2023-04-11T13:49:23.352Z,99.90
2023-04-11T13:51:51.338Z,99.90
2023-04-11T13:54:20.188Z,99.90
2023-04-11T13:56:48.917Z,99.90
2023-04-11T13:59:15.578Z,99.90
2023-04-11T14:01:46.432Z,99.90
2023-04-11T14:04:17.779Z,99.90
2023-04-11T14:06:45.980Z,99.90
2023-04-11T14:09:13.717Z,99.90
2023-04-11T14:11:41.535Z,99.90
2023-04-11T14:14:08.275Z,99.90
2023-04-11T14:16:35.043Z,99.90
2023-04-11T14:19:01.726Z,99.90
2023-04-11T14:21:28.776Z,99.90
2023-04-11T14:23:55.938Z,99.90
2023-04-11T14:26:22.965Z,99.90
2023-04-11T14:28:49.786Z,99.90
2023-04-11T14:31:16.640Z,99.90
2023-04-11T14:33:43.423Z,99.90
2023-04-11T14:36:10.264Z,99.90
2023-04-11T14:38:37.948Z,99.90
2023-04-11T14:41:06.027Z,99.90
2023-04-11T14:43:32.880Z,99.90
2023-04-11T14:45:59.715Z,99.90
2023-04-11T14:48:26.896Z,99.90
2023-04-11T14:50:53.779Z,99.90
2023-04-11T14:53:21.634Z,99.90
2023-04-11T14:55:48.313Z,99.90
2023-04-11T14:58:15.479Z,99.90
2023-04-11T15:00:42.189Z,99.90
2023-04-11T15:03:09.413Z,99.90
2023-04-11T15:05:38.955Z,99.90
2023-04-11T15:08:05.677Z,99.90
2023-04-11T15:10:32.424Z,99.90
2023-04-11T15:12:59.126Z,99.90
2023-04-11T15:15:25.841Z,99.90
2023-04-11T15:18:19.818Z,99.90
2023-04-11T15:20:46.914Z,99.90
2023-04-11T15:23:14.992Z,99.90
2023-04-11T15:25:43.061Z,99.90
2023-04-11T15:28:10.880Z,99.90
2023-04-11T15:30:51.179Z,99.90
2023-04-11T15:33:20.471Z,99.90
2023-04-11T15:35:47.980Z,99.90
2023-04-11T15:38:16.289Z,99.90
2023-04-11T15:40:43.295Z,99.90
2023-04-11T15:43:10.966Z,99.90
2023-04-11T15:45:38.890Z,99.90
2023-04-11T15:48:06.259Z,99.90
2023-04-11T15:50:33.001Z,99.90
2023-04-11T15:52:59.796Z,99.90
2023-04-11T15:55:26.592Z,99.90
2023-04-11T15:57:53.346Z,99.90
2023-04-11T16:00:20.773Z,99.90
2023-04-11T16:02:48.150Z,99.90
2023-04-11T16:05:15.487Z,99.90
2023-04-11T16:07:43.524Z,99.90
2023-04-11T16:10:10.458Z,99.90
2023-04-11T16:12:37.479Z,99.90
2023-04-11T16:15:05.577Z,99.90
2023-04-11T16:17:34.138Z,99.90
2023-04-11T16:20:02.004Z,99.90
2023-04-11T16:22:28.715Z,99.90
2023-04-11T16:24:55.384Z,99.90
2023-04-11T16:27:22.135Z,99.90
2023-04-11T16:29:48.910Z,99.90
2023-04-11T16:32:15.601Z,99.90
2023-04-11T16:34:42.305Z,99.90
2023-04-11T16:37:10.329Z,99.90
2023-04-11T16:39:36.986Z,99.90
2023-04-11T16:42:07.623Z,99.90
2023-04-11T16:44:38.729Z,99.90
2023-04-11T16:47:07.942Z,99.90
2023-04-11T16:49:36.225Z,99.90
2023-04-11T16:52:04.374Z,99.90
2023-04-11T16:54:34.324Z,99.90
2023-04-11T16:57:03.574Z,99.90
2023-04-11T16:59:32.472Z,99.90
2023-04-11T17:02:02.933Z,99.90
2023-04-11T17:04:31.216Z,99.90
2023-04-11T17:06:59.099Z,99.90
2023-04-11T17:09:26.869Z,99.90
2023-04-11T17:11:53.734Z,99.90
2023-04-11T17:14:24.302Z,99.90
2023-04-11T17:16:52.506Z,99.90
2023-04-11T17:19:24.569Z,99.90
2023-04-11T17:21:53.857Z,99.90
2023-04-11T17:24:23.229Z,99.90
2023-04-11T17:26:53.657Z,99.90
2023-04-11T17:29:23.848Z,99.90
2023-04-11T17:31:53.279Z,99.90
2023-04-11T17:34:20.039Z,99.90
2023-04-11T17:36:48.826Z,99.90
2023-04-11T17:39:18.633Z,99.90
2023-04-11T17:41:47.186Z,99.90
2023-04-11T17:44:14.178Z,99.90
2023-04-11T17:46:41.239Z,99.90
2023-04-11T17:49:08.128Z,99.90
2023-04-11T17:51:35.284Z,99.90
2023-04-11T17:54:03.024Z,99.90
2023-04-11T17:56:29.692Z,99.90
2023-04-11T17:58:56.391Z,99.90
2023-04-11T18:01:23.426Z,99.90
2023-04-11T18:03:50.216Z,99.90
2023-04-11T18:06:16.942Z,99.90
2023-04-11T18:08:51.006Z,99.90
2023-04-11T18:11:18.658Z,99.90
2023-04-11T18:13:47.634Z,99.90
2023-04-11T18:16:16.226Z,99.90
2023-04-11T18:18:42.987Z,99.90
2023-04-11T18:21:11.151Z,99.90
2023-04-11T18:23:38.793Z,99.90
2023-04-11T18:26:06.900Z,99.90
2023-04-11T18:28:33.698Z,99.90
2023-04-11T18:31:01.593Z,99.90
2023-04-11T18:33:28.974Z,99.90
2023-04-11T18:35:56.902Z,99.90
2023-04-11T18:38:23.884Z,99.90
2023-04-11T18:40:55.317Z,99.90
2023-04-11T18:43:24.502Z,99.90
2023-04-11T18:45:53.372Z,99.90
2023-04-11T18:48:25.454Z,99.90
2023-04-11T18:51:11.341Z,99.90
2023-04-11T18:53:39.607Z,99.90
2023-04-11T18:56:07.256Z,99.90
2023-04-11T18:58:38.985Z,99.90
2023-04-11T19:01:16.392Z,99.90
2023-04-11T19:03:47.138Z,99.90
2023-04-11T19:06:14.546Z,99.90
2023-04-11T19:08:41.340Z,99.90
2023-04-11T19:11:12.143Z,99.90
2023-04-11T19:13:40.217Z,99.90
2023-04-11T19:16:07.363Z,99.90
2023-04-11T19:18:35.559Z,99.90
2023-04-11T19:21:03.629Z,99.90
2023-04-11T19:23:31.978Z,99.90
2023-04-11T19:25:59.137Z,99.90
2023-04-11T19:28:30.949Z,99.90
2023-04-11T19:30:59.022Z,99.90
2023-04-11T19:33:26.053Z,99.90
2023-04-11T19:35:55.420Z,99.90
2023-04-11T19:38:22.176Z,99.90
2023-04-11T19:40:49.462Z,99.90
2023-04-11T19:43:16.488Z,99.90
2023-04-11T19:45:43.580Z,99.90
2023-04-11T19:48:10.376Z,99.90
2023-04-11T19:50:37.167Z,99.90
2023-04-11T19:53:03.973Z,99.90
2023-04-11T19:55:30.741Z,99.90
2023-04-11T19:57:57.390Z,99.90
2023-04-11T20:00:25.980Z,99.90
2023-04-11T20:02:54.522Z,99.90
2023-04-11T20:05:21.367Z,99.90
2023-04-11T20:07:48.395Z,99.90
2023-04-11T20:10:16.174Z,99.90
2023-04-11T20:12:44.344Z,99.90
2023-04-11T20:15:11.356Z,99.90
2023-04-11T20:17:38.580Z,99.90
2023-04-11T20:20:05.751Z,99.90
2023-04-11T20:22:34.345Z,99.90
2023-04-11T20:25:01.117Z,99.90
2023-04-11T20:27:27.799Z,99.90
2023-04-11T20:29:54.526Z,99.90
2023-04-11T20:32:21.401Z,99.90
2023-04-11T20:34:48.226Z,99.90
2023-04-11T20:37:16.969Z,99.90
2023-04-11T20:39:48.750Z,99.90
2023-04-11T20:42:15.939Z,99.90
2023-04-11T20:44:42.772Z,99.90
2023-04-11T20:47:09.506Z,99.90
2023-04-11T20:49:36.656Z,99.90
2023-04-11T20:52:03.371Z,99.90
2023-04-11T20:54:30.176Z,99.90
2023-04-11T20:56:56.883Z,99.90
2023-04-11T20:59:23.697Z,99.90
2023-04-11T21:01:50.456Z,99.90
2023-04-11T21:04:17.278Z,99.90
2023-04-11T21:06:44.034Z,99.90
2023-04-11T21:09:10.728Z,99.90
2023-04-11T21:11:37.419Z,99.90
2023-04-11T21:14:04.875Z,99.90
2023-04-11T21:16:31.559Z,99.90
2023-04-11T21:18:58.226Z,99.90
2023-04-11T21:21:25.025Z,99.90
2023-04-11T21:23:51.709Z,99.90
2023-04-11T21:26:18.653Z,99.90
2023-04-11T21:28:45.326Z,99.90
2023-04-11T21:31:12.062Z,99.90
2023-04-11T21:33:38.737Z,99.90
2023-04-11T21:36:05.858Z,99.90
2023-04-11T21:38:32.587Z,99.90
2023-04-11T21:40:59.278Z,99.90
2023-04-11T21:43:25.984Z,99.90
2023-04-11T21:45:52.747Z,99.90
2023-04-11T21:48:19.509Z,99.90
2023-04-11T21:50:46.275Z,99.90
2023-04-11T21:53:13.081Z,99.90
2023-04-11T21:55:44.867Z,99.90
2023-04-11T21:58:21.923Z,99.90
2023-04-11T22:00:55.103Z,99.90
2023-04-11T22:03:22.048Z,99.90
2023-04-11T22:05:48.848Z,99.90
2023-04-11T22:08:15.910Z,99.90
2023-04-11T22:10:47.643Z,99.90
2023-04-11T22:13:16.391Z,99.90
2023-04-11T22:15:43.645Z,99.90
2023-04-11T22:18:11.313Z,99.90
2023-04-11T22:20:42.563Z,99.90
2023-04-11T22:23:10.530Z,99.90
2023-04-11T22:25:37.411Z,99.90
2023-04-11T22:28:04.465Z,99.90
2023-04-11T22:30:31.176Z,99.90
2023-04-11T22:32:57.870Z,99.90
2023-04-11T22:35:24.500Z,99.90
2023-04-11T22:37:51.279Z,99.90
2023-04-11T22:40:18.022Z,99.90
2023-04-11T22:42:44.633Z,99.90
2023-04-11T22:45:11.439Z,99.90
2023-04-11T22:47:38.257Z,99.90
2023-04-11T22:50:05.291Z,99.90
2023-04-11T22:52:31.989Z,99.90
2023-04-11T22:54:58.651Z,99.90
2023-04-11T22:57:25.301Z,99.90
2023-04-11T22:59:51.992Z,99.90
2023-04-11T23:02:18.721Z,99.90
2023-04-11T23:04:45.595Z,99.90
2023-04-11T23:07:12.436Z,99.90
2023-04-11T23:09:39.086Z,99.90
2023-04-11T23:12:05.849Z,99.90
2023-04-11T23:14:32.509Z,99.90
2023-04-11T23:16:59.165Z,99.90
2023-04-11T23:19:25.871Z,99.90
2023-04-11T23:21:52.579Z,99.90
2023-04-11T23:24:19.339Z,99.90
2023-04-11T23:26:46.011Z,99.90
2023-04-11T23:29:12.810Z,99.90
2023-04-11T23:31:39.542Z,99.90
2023-04-11T23:34:06.220Z,99.90
2023-04-11T23:36:32.903Z,99.90
2023-04-11T23:38:59.608Z,99.90
2023-04-11T23:41:26.308Z,99.90
2023-04-11T23:43:53.063Z,99.90
2023-04-11T23:46:19.900Z,99.90
2023-04-11T23:48:46.623Z,99.90
2023-04-11T23:51:13.931Z,99.90
2023-04-11T23:53:40.777Z,99.90
2023-04-11T23:56:08.230Z,99.90
2023-04-11T23:58:35.184Z,99.90
